Time;durP1;ratioP1;P1;durP2;ratioP2;P2;SDS_P1;SDS_P2;PMS_P1;PMS_P2;Temp;Humidity;BMP_temperature;BMP_pressure;BME280_temperature;BME280_humidity;BME280_pressure;Samples;Min_cycle;Max_cycle;Signal;HPM_P1;HPM_P2
2022/12/09 00:04:27;;;;;;;0.28;0.20;;;;;;;15.05;82.22;100287.44;20882379;28;20049;-87
2022/12/09 00:14:28;;;;;;;0.13;0.10;;;;;;;15.17;82.30;100306.97;20880898;28;20128;-87
2022/12/09 00:24:31;;;;;;;0.50;0.30;;;;;;;15.50;82.29;100353.31;20862826;28;20087;-88
2022/12/09 00:34:32;;;;;;;0.17;0.17;;;;;;;15.49;82.36;100348.06;20879446;28;20045;-87
2022/12/09 00:44:34;;;;;;;0.10;0.10;;;;;;;15.69;82.29;100383.88;20877063;28;20397;-87
2022/12/09 00:54:35;;;;;;;0.68;0.20;;;;;;;15.52;82.22;100353.16;20877236;28;20079;-86
2022/12/09 01:04:37;;;;;;;0.38;0.20;;;;;;;15.47;82.29;100345.53;20877253;28;20060;-88
2022/12/09 01:14:38;;;;;;;0.20;0.20;;;;;;;15.45;81.98;100331.38;20858534;28;20045;-88
2022/12/09 01:24:40;;;;;;;0.28;0.20;;;;;;;15.41;81.91;100343.34;20841059;28;20052;-88
2022/12/09 01:34:42;;;;;;;0.20;0.10;;;;;;;15.69;82.11;100373.16;20856592;28;20055;-88
2022/12/09 01:45:21;;;;;;;0.20;0.20;;;;;;;15.69;81.95;100377.66;20891486;28;20140;-88
2022/12/09 01:55:24;;;;;;;0.20;0.20;;;;;;;15.29;81.88;100301.50;20856260;28;20519;-88
2022/12/09 02:05:26;;;;;;;0.25;0.10;;;;;;;15.69;81.70;100364.22;20866450;28;20045;-88
2022/12/09 02:15:41;;;;;;;0.50;0.30;;;;;;;15.68;81.96;100368.75;20841214;28;20049;-88
2022/12/09 02:25:48;;;;;;;0.20;0.20;;;;;;;15.66;81.82;100368.88;20855338;28;20531;-88
2022/12/09 02:35:56;;;;;;;0.35;0.30;;;;;;;15.49;81.86;100346.25;20905175;28;20048;-88
2022/12/09 02:46:00;;;;;;;0.80;0.20;;;;;;;15.43;81.66;100319.91;20854242;28;20056;-88
2022/12/09 02:56:04;;;;;;;0.20;0.20;;;;;;;15.66;81.41;100360.00;20868938;28;20041;-88
2022/12/09 03:06:09;;;;;;;0.20;0.20;;;;;;;15.68;81.73;100358.03;20851644;28;20394;-88
2022/12/09 03:17:00;;;;;;;0.68;0.20;;;;;;;15.47;81.37;100331.25;20867733;28;20044;-88
2022/12/09 03:27:07;;;;;;;0.32;0.30;;;;;;;15.65;81.54;100350.25;20871939;28;20501;-88
2022/12/09 03:37:09;;;;;;;0.28;0.28;;;;;;;15.66;81.30;100339.38;20893546;28;20106;-88
2022/12/09 03:47:11;;;;;;;0.20;0.10;;;;;;;15.66;81.47;100325.13;20948301;28;20408;-88
2022/12/09 03:57:17;;;;;;;0.30;0.20;;;;;;;15.64;81.31;100335.97;20947661;28;20389;-88
2022/12/09 04:07:20;;;;;;;0.10;0.10;;;;;;;15.52;81.34;100311.09;20946704;28;20127;-88
2022/12/09 04:17:21;;;;;;;0.20;0.20;;;;;;;15.65;81.48;100320.72;20962994;28;20110;-88
2022/12/09 04:27:23;;;;;;;1.13;0.20;;;;;;;15.65;81.09;100320.72;20962429;28;20048;-87
2022/12/09 04:37:25;;;;;;;0.20;0.20;;;;;;;15.64;81.28;100310.97;20952482;28;20118;-88
2022/12/09 04:47:27;;;;;;;0.20;0.20;;;;;;;15.52;81.14;100296.81;20959120;28;20059;-88
2022/12/09 04:57:29;;;;;;;0.30;0.17;;;;;;;15.51;81.15;100312.06;20957736;28;20049;-88
2022/12/09 05:07:30;;;;;;;0.22;0.22;;;;;;;15.54;81.16;100323.53;20941019;28;20057;-88
2022/12/09 05:17:32;;;;;;;0.22;0.22;;;;;;;15.63;80.96;100317.34;20939428;28;20432;-88
2022/12/09 05:27:34;;;;;;;0.20;0.20;;;;;;;15.51;80.96;100304.03;20937791;28;20102;-88
2022/12/09 05:37:35;;;;;;;0.20;0.20;;;;;;;15.23;80.71;100257.31;20929424;28;20044;-88
2022/12/09 05:47:37;;;;;;;0.28;0.20;;;;;;;14.98;80.78;100210.34;20955468;28;20053;-87
2022/12/09 05:57:39;;;;;;;0.10;0.10;;;;;;;15.59;80.73;100303.31;20954873;28;20048;-87
2022/12/09 06:07:41;;;;;;;0.20;0.20;;;;;;;15.50;80.79;100280.88;20925738;28;20131;-87
2022/12/09 06:17:43;;;;;;;0.10;0.10;;;;;;;15.59;80.63;100284.53;20920843;28;20131;-87
2022/12/09 06:27:45;;;;;;;0.73;0.17;;;;;;;15.59;80.78;100294.44;20954943;28;20443;-87
2022/12/09 06:37:50;;;;;;;0.10;0.10;;;;;;;15.32;80.65;100261.88;20900997;28;20505;-88
2022/12/09 06:47:52;;;;;;;0.23;0.10;;;;;;;15.58;80.54;100295.44;20932843;28;20091;-88
2022/12/09 06:57:54;;;;;;;0.20;0.20;;;;;;;15.47;80.32;100281.16;20966921;28;20106;-88
2022/12/09 07:07:56;;;;;;;0.20;0.20;;;;;;;15.57;80.56;100304.47;20934475;28;20102;-88
2022/12/09 07:17:58;;;;;;;0.20;0.20;;;;;;;15.44;80.20;100277.88;20922820;28;20056;-89
2022/12/09 07:27:59;;;;;;;0.40;0.30;;;;;;;15.56;80.36;100300.09;20942416;28;20144;-88
2022/12/09 07:38:01;;;;;;;0.32;0.28;;;;;;;15.41;80.22;100294.22;20921727;28;20049;-88
2022/12/09 07:48:03;;;;;;;0.20;0.20;;;;;;;15.55;80.33;100318.00;20953057;28;20048;-88
2022/12/09 07:58:05;;;;;;;0.50;0.40;;;;;;;15.26;79.13;100265.09;20899120;28;20078;-89
2022/12/09 08:08:07;;;;;;;0.68;0.38;;;;;;;15.46;80.02;100279.41;20917110;28;20066;-93
2022/12/09 08:18:09;;;;;;;0.75;0.40;;;;;;;15.86;79.10;100311.75;20942654;28;20056;-93
2022/12/09 08:28:12;;;;;;;3.90;0.40;;;;;;;15.99;79.17;100328.50;20938773;28;20055;-92
2022/12/09 08:38:14;;;;;;;0.50;0.45;;;;;;;16.08;79.48;100324.97;20924789;28;20055;-90
2022/12/09 08:48:16;;;;;;;0.40;0.40;;;;;;;16.15;79.59;100321.75;20914586;28;20051;-87
2022/12/09 08:58:18;;;;;;;1.17;0.43;;;;;;;16.12;79.37;100316.66;20916657;28;20048;-92
2022/12/09 09:08:19;;;;;;;1.17;0.30;;;;;;;16.09;79.67;100318.63;20910041;28;20060;-90
2022/12/09 09:18:21;;;;;;;1.25;0.30;;;;;;;16.07;79.83;100339.41;20901124;28;20057;-88
2022/12/09 09:28:24;;;;;;;1.35;0.50;;;;;;;16.04;79.88;100337.00;20937482;28;20086;-90
2022/12/09 09:38:32;;;;;;;0.55;0.50;;;;;;;16.05;79.97;100345.88;20932513;28;20106;-90
2022/12/09 09:48:34;;;;;;;0.82;0.30;;;;;;;16.03;80.09;100346.03;20922839;28;20056;-89
2022/12/09 09:58:50;;;;;;;0.40;0.40;;;;;;;16.03;80.36;100346.03;20931858;28;20406;-92
2022/12/09 10:09:16;;;;;;;0.45;0.30;;;;;;;15.73;80.53;100295.91;20913361;28;20048;-91
2022/12/09 10:19:27;;;;;;;0.22;0.22;;;;;;;15.88;80.23;100310.66;20905544;28;20055;-91
2022/12/09 10:29:41;;;;;;;0.80;0.40;;;;;;;15.90;80.33;100329.31;20948009;28;20056;-89
2022/12/09 10:39:43;;;;;;;0.40;0.40;;;;;;;15.62;80.24;100283.44;20909844;28;20045;-93
2022/12/09 10:49:47;;;;;;;1.10;0.50;;;;;;;16.03;80.09;100356.78;20915542;28;20106;-94
2022/12/09 10:59:58;;;;;;;0.30;0.30;;;;;;;15.36;80.08;100244.53;20912099;28;20050;-92
2022/12/09 11:10:00;;;;;;;0.93;0.60;;;;;;;16.03;80.11;100340.66;20920066;28;20052;-90
2022/12/09 11:20:05;;;;;;;0.30;0.30;;;;;;;16.04;79.87;100337.00;20931251;28;20049;-91
2022/12/09 11:30:30;;;;;;;0.35;0.35;;;;;;;16.04;79.57;100331.63;20949830;28;20496;-90
2022/12/09 11:40:32;;;;;;;0.40;0.40;;;;;;;16.03;79.45;100327.22;20982547;28;20682;-89
2022/12/09 11:50:36;;;;;;;1.45;0.50;;;;;;;16.04;79.52;100326.25;20936239;28;20156;-90
2022/12/09 12:00:55;;;;;;;0.40;0.40;;;;;;;16.06;79.45;100321.59;20914656;28;20045;-89
2022/12/09 12:11:06;;;;;;;3.25;0.63;;;;;;;16.05;79.52;100321.72;20903177;28;20057;-92
2022/12/09 12:21:35;;;;;;;1.65;0.50;;;;;;;16.06;79.22;100326.97;20902702;28;20040;-91
2022/12/09 12:32:01;;;;;;;0.50;0.50;;;;;;;16.06;79.05;100318.91;20933614;28;20048;-93
2022/12/09 12:42:35;;;;;;;0.75;0.70;;;;;;;16.06;78.72;100324.28;20917431;28;20052;-88
2022/12/09 12:53:05;;;;;;;0.70;0.70;;;;;;;15.58;78.41;100229.19;20900169;28;20412;-91
2022/12/09 13:03:23;;;;;;;2.08;0.60;;;;;;;15.91;78.97;100304.19;20929034;28;20052;-88
2022/12/09 13:13:42;;;;;;;1.20;0.80;;;;;;;15.84;78.59;100265.41;20918911;28;20725;-89
2022/12/09 13:24:20;;;;;;;0.80;0.80;;;;;;;15.84;78.23;100260.91;20877468;28;20048;-90
2022/12/09 13:34:36;;;;;;;0.80;0.80;;;;;;;16.09;78.27;100298.97;20886846;28;20053;-89
2022/12/09 13:44:38;;;;;;;1.33;0.93;;;;;;;16.09;78.00;100296.28;20927403;28;20081;-89
2022/12/09 13:54:46;;;;;;;0.90;0.80;;;;;;;16.09;78.21;100298.97;20920053;28;20147;-89
2022/12/09 14:04:55;;;;;;;1.00;0.90;;;;;;;15.36;77.86;100171.25;20889971;28;20132;-90
2022/12/09 14:15:22;;;;;;;1.15;0.85;;;;;;;16.10;77.92;100295.28;20929238;28;20033;-95
2022/12/09 14:25:28;;;;;;;0.85;0.70;;;;;;;16.10;77.98;100287.22;21010836;28;20048;-93
2022/12/09 14:35:39;;;;;;;1.10;1.00;;;;;;;16.11;77.71;100293.47;21004548;28;20497;-94
2022/12/09 14:45:56;;;;;;;1.38;1.00;;;;;;;16.12;77.65;100289.78;20982932;28;20048;-94
2022/12/09 14:55:58;;;;;;;1.08;0.95;;;;;;;15.91;77.69;100245.97;20944852;28;20431;-96
2022/12/09 15:06:05;;;;;;;1.20;0.80;;;;;;;16.12;77.37;100296.00;21083491;22;20497;-88
2022/12/09 15:16:11;;;;;;;0.63;0.63;;;;;;;16.12;77.45;100296.00;20893334;28;20048;-87
2022/12/09 15:26:24;;;;;;;1.05;0.90;;;;;;;16.13;77.50;100291.50;20913637;28;20079;-87
2022/12/09 15:36:28;;;;;;;1.25;0.93;;;;;;;16.13;77.46;100286.13;20917152;28;20048;-87
2022/12/09 15:46:31;;;;;;;1.08;0.98;;;;;;;16.13;77.51;100281.59;20922971;28;20841;-87
2022/12/09 15:56:38;;;;;;;0.68;0.60;;;;;;;15.69;77.76;100238.09;20891686;28;20041;-88
2022/12/09 16:06:40;;;;;;;1.20;0.93;;;;;;;16.13;77.45;100303.09;20960116;28;20059;-90
2022/12/09 16:16:46;;;;;;;0.90;0.80;;;;;;;16.13;77.61;100307.59;20936729;28;20052;-88
2022/12/09 16:26:49;;;;;;;2.85;1.00;;;;;;;16.15;77.71;100314.53;20871258;28;20052;-86
2022/12/09 16:36:53;;;;;;;1.33;1.00;;;;;;;16.15;78.03;100311.00;20923427;28;20102;-86
2022/12/09 16:47:23;;;;;;;1.60;1.13;;;;;;;16.16;78.28;100299.25;20916453;28;20048;-89
2022/12/09 16:57:25;;;;;;;1.27;1.10;;;;;;;16.17;78.59;100301.81;20917709;28;20519;-93
2022/12/09 17:07:26;;;;;;;1.52;1.08;;;;;;;16.17;78.72;100309.88;20911943;28;20056;-88
2022/12/09 17:17:28;;;;;;;2.58;1.20;;;;;;;16.18;78.90;100316.09;20894504;28;20056;-88
2022/12/09 17:27:30;;;;;;;1.30;1.05;;;;;;;16.07;79.29;100298.25;20897252;28;20143;-89
2022/12/09 17:37:31;;;;;;;2.20;1.00;;;;;;;16.19;78.90;100325.84;20895062;28;20037;-88
2022/12/09 17:47:33;;;;;;;1.42;1.08;;;;;;;15.89;79.15;100284.66;20915083;28;20072;-88
2022/12/09 17:57:34;;;;;;;2.00;1.20;;;;;;;16.21;79.24;100351.59;20886459;28;21184;-87
2022/12/09 18:07:36;;;;;;;1.73;1.10;;;;;;;15.99;79.37;100323.13;20892092;28;21440;-89
2022/12/09 18:17:38;;;;;;;8.02;1.38;;;;;;;16.24;79.48;100374.59;20930702;28;20048;-90
2022/12/09 18:27:39;;;;;;;2.50;1.20;;;;;;;16.20;79.26;100374.06;20908984;28;20073;-87
2022/12/09 18:37:41;;;;;;;1.20;1.00;;;;;;;16.14;79.28;100384.50;20906182;28;20460;-87
2022/12/09 18:47:42;;;;;;;2.35;1.35;;;;;;;16.09;79.27;100379.50;20925550;28;20083;-87
2022/12/09 18:57:44;;;;;;;1.75;1.02;;;;;;;16.04;79.45;100385.31;20945983;28;20053;-87
2022/12/09 19:07:45;;;;;;;1.40;1.20;;;;;;;16.02;79.45;100391.78;20947592;28;20048;-87
2022/12/09 19:17:47;;;;;;;2.10;1.00;;;;;;;15.99;79.56;100389.38;20956297;28;20052;-87
2022/12/09 19:27:48;;;;;;;1.15;0.90;;;;;;;15.84;79.29;100373.63;20943832;28;20083;-87
2022/12/09 19:37:50;;;;;;;2.47;1.20;;;;;;;15.94;79.37;100401.38;20923355;28;20416;-85
2022/12/09 19:47:58;;;;;;;2.67;1.50;;;;;;;15.93;79.13;100401.53;20917667;28;20179;-87
2022/12/09 19:58:02;;;;;;;2.05;1.00;;;;;;;15.48;79.49;100325.75;20904832;28;20056;-87
2022/12/09 20:08:04;;;;;;;1.73;1.23;;;;;;;15.90;79.23;100404.47;20937902;28;20044;-87
2022/12/09 20:18:07;;;;;;;1.33;1.00;;;;;;;15.91;79.13;100412.41;20893882;28;20048;-87
2022/12/09 20:28:08;;;;;;;1.13;1.02;;;;;;;15.40;79.11;100343.50;20899254;28;20055;-87
2022/12/09 20:38:10;;;;;;;1.58;1.00;;;;;;;15.89;79.04;100435.84;20919264;28;20048;-87
2022/12/09 20:48:11;;;;;;;1.48;1.10;;;;;;;15.89;78.87;100437.66;20940013;28;20067;-88
2022/12/09 20:58:13;;;;;;;1.98;1.08;;;;;;;15.88;79.06;100438.66;20922051;28;20501;-87
2022/12/09 21:08:15;;;;;;;1.70;1.00;;;;;;;15.78;79.01;100423.31;20936357;28;20128;-87
2022/12/09 21:18:17;;;;;;;1.10;1.00;;;;;;;15.87;78.73;100432.41;20902762;28;20075;-88
2022/12/09 21:28:19;;;;;;;1.35;1.20;;;;;;;15.89;78.65;100434.97;20938763;28;20128;-87
2022/12/09 21:38:20;;;;;;;1.17;0.90;;;;;;;15.88;78.90;100463.66;20931930;28;20127;-88
2022/12/09 21:48:22;;;;;;;1.67;1.10;;;;;;;15.88;78.90;100449.38;20920442;28;20135;-86
2022/12/09 21:58:24;;;;;;;1.60;1.08;;;;;;;15.88;78.79;100450.25;20937580;28;20367;-87
2022/12/09 22:08:25;;;;;;;1.05;0.90;;;;;;;15.89;78.54;100451.09;20929949;28;20131;-87
2022/12/09 22:18:27;;;;;;;1.63;1.00;;;;;;;15.42;78.68;100374.56;20935371;28;20579;-87
2022/12/09 22:28:28;;;;;;;1.35;1.10;;;;;;;15.87;78.62;100444.97;20949705;28;20055;-87
2022/12/09 22:38:32;;;;;;;1.40;1.02;;;;;;;15.87;78.66;100458.38;20931450;28;20134;-88
2022/12/09 22:48:34;;;;;;;1.40;1.15;;;;;;;15.47;78.42;100388.44;20912354;28;20091;-87
2022/12/09 22:58:36;;;;;;;1.13;1.08;;;;;;;15.87;78.47;100444.97;20947826;28;20094;-87
2022/12/09 23:08:39;;;;;;;1.30;0.95;;;;;;;15.12;78.25;100324.41;20944068;28;20110;-88
2022/12/09 23:18:41;;;;;;;1.35;1.10;;;;;;;15.55;78.43;100394.97;20933435;28;20041;-88
2022/12/09 23:28:45;;;;;;;1.13;1.02;;;;;;;15.31;78.07;100361.22;20953474;28;20509;-88
2022/12/09 23:38:47;;;;;;;1.75;1.00;;;;;;;15.56;78.22;100412.78;20943857;28;20052;-88
2022/12/09 23:48:49;;;;;;;1.10;1.00;;;;;;;15.62;78.13;100418.44;20924501;28;20060;-87
2022/12/09 23:58:59;;;;;;;1.08;0.98;;;;;;;15.62;77.90;100417.59;20945146;28;20401;-87
